Selah, Washington
Current Conditions -  °F | °C
As of 3:56 PM on Wednesday 22 Oct 2014 (Local Time) from K1YT Reporting Station
Rain Showers Rain Showers  
Wind Chill: 12°   Ceiling: 4400
Heat Index: 12°   Visibility: 10mi
Dew Point: 10°   Wind: 2mph
Humidity: 86%   Direction: 240°WSW
Pressure: 29.72"   Gusts: NA
Location:  46.65°N, 120.53°W
Report Text: K1YT 222256Z AUTO 24002KT 10SM -SHRA OVC044 12/10 A2972 RMK AO2 LTG DSNT NW SLPNO P0001 T01240102
Loading
Personal Weather Stations






























Interactive Weather Map
Tropical Storm Tracking
New forecast layout! Learn more

10-Day Weather Forecast

Advertisements
Track Severe Weather on mobile